Villas del Palmar Sur, Puerto Rico
Current Conditions -  °F | °C
As of 12:56 PM on Friday 24 Oct 2014 (Local Time) from TJSJ Reporting Station
Scattered Clouds Scattered Clouds  
Wind Chill: 92°   Ceiling: Unl
Heat Index: 102°   Visibility: 10mi
Dew Point: 74°   Wind: 12mph
Humidity: 55%   Direction: 120°ESE
Pressure: 29.9"   Gusts: NA
Location:  18.4048°N, 65.9789°W
Report Text: TJSJ 241656Z 12010KT 10SM FEW040 SCT090 33/23 A2990 RMK AO2 SLP124 T03330233
Loading
Personal Weather Stations






























Interactive Weather Map
Tropical Storm Tracking
New forecast layout! Learn more

10-Day Weather Forecast

Advertisements
Track Severe Weather on mobile